sensor_id;sensor_type;location;lat;lon;timestamp;pressure;altitude;pressure_sealevel;temperature;humidity
31337;BME280;22846;42.654;23.314;2023-04-20T00:00:19;94138.88;;;23.73;60.76
31337;BME280;22846;42.654;23.314;2023-04-20T00:02:46;94134.75;;;23.68;60.59
31337;BME280;22846;42.654;23.314;2023-04-20T00:05:11;94136.16;;;23.73;60.65
31337;BME280;22846;42.654;23.314;2023-04-20T00:07:37;94136.59;;;23.71;60.79
31337;BME280;22846;42.654;23.314;2023-04-20T00:10:03;94134.66;;;23.72;60.52
31337;BME280;22846;42.654;23.314;2023-04-20T00:12:28;94126.88;;;23.70;60.42
31337;BME280;22846;42.654;23.314;2023-04-20T00:14:54;94118.84;;;23.67;60.48
31337;BME280;22846;42.654;23.314;2023-04-20T00:17:20;94119.91;;;23.69;60.41
31337;BME280;22846;42.654;23.314;2023-04-20T00:19:45;94123.09;;;23.68;60.74
31337;BME280;22846;42.654;23.314;2023-04-20T00:22:12;94116.09;;;23.67;60.59
31337;BME280;22846;42.654;23.314;2023-04-20T00:24:37;94118.84;;;23.67;60.32
31337;BME280;22846;42.654;23.314;2023-04-20T00:27:02;94099.69;;;23.58;60.29
31337;BME280;22846;42.654;23.314;2023-04-20T00:29:28;94117.31;;;23.66;60.32
31337;BME280;22846;42.654;23.314;2023-04-20T00:31:53;94117.31;;;23.66;60.36
31337;BME280;22846;42.654;23.314;2023-04-20T00:34:19;94118.50;;;23.65;60.50
31337;BME280;22846;42.654;23.314;2023-04-20T00:36:45;94115.78;;;23.65;60.70
31337;BME280;22846;42.654;23.314;2023-04-20T00:39:10;94108.06;;;23.63;60.67
31337;BME280;22846;42.654;23.314;2023-04-20T00:41:36;94094.16;;;23.49;60.39
31337;BME280;22846;42.654;23.314;2023-04-20T00:44:01;94110.91;;;23.60;60.30
31337;BME280;22846;42.654;23.314;2023-04-20T00:46:27;94097.97;;;23.51;60.52
31337;BME280;22846;42.654;23.314;2023-04-20T00:48:53;94109.50;;;23.55;60.47
31337;BME280;22846;42.654;23.314;2023-04-20T00:51:20;94121.38;;;23.61;60.35
31337;BME280;22846;42.654;23.314;2023-04-20T00:53:46;94112.44;;;23.61;60.66
31337;BME280;22846;42.654;23.314;2023-04-20T00:56:12;94114.38;;;23.60;60.66
31337;BME280;22846;42.654;23.314;2023-04-20T00:58:38;94114.38;;;23.60;60.27
31337;BME280;22846;42.654;23.314;2023-04-20T01:01:05;94111.38;;;23.58;60.24
31337;BME280;22846;42.654;23.314;2023-04-20T01:03:31;94104.06;;;23.55;60.38
31337;BME280;22846;42.654;23.314;2023-04-20T01:05:57;94112.13;;;23.59;60.48
31337;BME280;22846;42.654;23.314;2023-04-20T01:08:26;94107.13;;;23.57;60.28
31337;BME280;22846;42.654;23.314;2023-04-20T01:10:52;94112.13;;;23.59;60.28
31337;BME280;22846;42.654;23.314;2023-04-20T01:13:18;94106.34;;;23.57;60.43
31337;BME280;22846;42.654;23.314;2023-04-20T01:15:43;94111.78;;;23.57;60.17
31337;BME280;22846;42.654;23.314;2023-04-20T01:18:09;94112.56;;;23.57;60.61
31337;BME280;22846;42.654;23.314;2023-04-20T01:20:36;94113.78;;;23.56;60.65
31337;BME280;22846;42.654;23.314;2023-04-20T01:23:01;94118.44;;;23.56;60.29
31337;BME280;22846;42.654;23.314;2023-04-20T01:25:27;94111.50;;;23.55;60.68
31337;BME280;22846;42.654;23.314;2023-04-20T01:27:52;94116.16;;;23.54;60.27
31337;BME280;22846;42.654;23.314;2023-04-20T01:30:17;94114.22;;;23.55;60.28
31337;BME280;22846;42.654;23.314;2023-04-20T01:32:43;94106.03;;;23.55;60.14
31337;BME280;22846;42.654;23.314;2023-04-20T01:35:09;94106.47;;;23.53;60.38
31337;BME280;22846;42.654;23.314;2023-04-20T01:37:35;94093.84;;;23.47;60.38
31337;BME280;22846;42.654;23.314;2023-04-20T01:40:01;94109.19;;;23.53;60.45
31337;BME280;22846;42.654;23.314;2023-04-20T01:42:26;94109.19;;;23.53;60.62
31337;BME280;22846;42.654;23.314;2023-04-20T01:44:52;94107.66;;;23.52;60.13
31337;BME280;22846;42.654;23.314;2023-04-20T01:47:17;94103.00;;;23.53;60.36
31337;BME280;22846;42.654;23.314;2023-04-20T01:49:43;94099.47;;;23.52;60.65
31337;BME280;22846;42.654;23.314;2023-04-20T01:52:09;94096.00;;;23.52;60.49
31337;BME280;22846;42.654;23.314;2023-04-20T01:54:34;94057.06;;;23.30;60.61
31337;BME280;22846;42.654;23.314;2023-04-20T01:57:01;94094.47;;;23.51;60.60
31337;BME280;22846;42.654;23.314;2023-04-20T01:59:27;94094.47;;;23.51;60.22
31337;BME280;22846;42.654;23.314;2023-04-20T02:01:52;94089.91;;;23.48;60.16
31337;BME280;22846;42.654;23.314;2023-04-20T02:04:18;94092.22;;;23.49;60.36
31337;BME280;22846;42.654;23.314;2023-04-20T02:06:44;94088.69;;;23.49;60.30
31337;BME280;22846;42.654;23.314;2023-04-20T02:09:09;94092.22;;;23.49;60.59
31337;BME280;22846;42.654;23.314;2023-04-20T02:11:35;94089.91;;;23.48;60.60
31337;BME280;22846;42.654;23.314;2023-04-20T02:14:00;94085.22;;;23.48;60.24
31337;BME280;22846;42.654;23.314;2023-04-20T02:16:26;94087.19;;;23.48;60.32
31337;BME280;22846;42.654;23.314;2023-04-20T02:18:53;94084.44;;;23.48;60.30
31337;BME280;22846;42.654;23.314;2023-04-20T02:21:19;94066.34;;;23.32;60.65
31337;BME280;22846;42.654;23.314;2023-04-20T02:23:44;94082.94;;;23.47;60.58
31337;BME280;22846;42.654;23.314;2023-04-20T02:26:09;94086.88;;;23.46;60.55
31337;BME280;22846;42.654;23.314;2023-04-20T02:28:35;94089.59;;;23.46;60.58
31337;BME280;22846;42.654;23.314;2023-04-20T02:31:01;94082.44;;;23.39;60.54
31337;BME280;22846;42.654;23.314;2023-04-20T02:33:26;94088.84;;;23.45;60.63
31337;BME280;22846;42.654;23.314;2023-04-20T02:35:52;94080.66;;;23.45;60.58
31337;BME280;22846;42.654;23.314;2023-04-20T02:38:17;94081.84;;;23.44;60.29
31337;BME280;22846;42.654;23.314;2023-04-20T02:40:43;94076.41;;;23.44;60.59
31337;BME280;22846;42.654;23.314;2023-04-20T02:43:08;94081.84;;;23.44;60.68
31337;BME280;22846;42.654;23.314;2023-04-20T02:45:33;94085.78;;;23.43;60.50
31337;BME280;22846;42.654;23.314;2023-04-20T02:47:59;94090.47;;;23.43;60.22
31337;BME280;22846;42.654;23.314;2023-04-20T02:50:25;94084.25;;;23.42;60.40
31337;BME280;22846;42.654;23.314;2023-04-20T02:52:50;94086.22;;;23.42;60.34
31337;BME280;22846;42.654;23.314;2023-04-20T02:55:16;94099.13;;;23.41;60.23
31337;BME280;22846;42.654;23.314;2023-04-20T02:57:41;94094.41;;;23.42;60.54
31337;BME280;22846;42.654;23.314;2023-04-20T03:00:07;94085.47;;;23.41;60.22
31337;BME280;22846;42.654;23.314;2023-04-20T03:02:37;94090.16;;;23.41;60.48
31337;BME280;22846;42.654;23.314;2023-04-20T03:05:03;94087.44;;;23.41;60.38
31337;BME280;22846;42.654;23.314;2023-04-20T03:07:29;94057.31;;;23.23;60.04
31337;BME280;22846;42.654;23.314;2023-04-20T03:09:54;94086.69;;;23.40;60.21
31337;BME280;22846;42.654;23.314;2023-04-20T03:12:20;94090.16;;;23.41;60.11
31337;BME280;22846;42.654;23.314;2023-04-20T03:14:46;94082.56;;;23.36;60.31
31337;BME280;22846;42.654;23.314;2023-04-20T03:17:12;94087.09;;;23.39;60.24
31337;BME280;22846;42.654;23.314;2023-04-20T03:19:37;94080.25;;;23.34;60.37
31337;BME280;22846;42.654;23.314;2023-04-20T03:22:02;94090.63;;;23.39;60.34
31337;BME280;22846;42.654;23.314;2023-04-20T03:24:28;94086.34;;;23.38;60.36
31337;BME280;22846;42.654;23.314;2023-04-20T03:26:54;94082.44;;;23.39;60.17
31337;BME280;22846;42.654;23.314;2023-04-20T03:29:19;94087.09;;;23.39;60.18
31337;BME280;22846;42.654;23.314;2023-04-20T03:31:44;94087.09;;;23.39;60.21
31337;BME280;22846;42.654;23.314;2023-04-20T03:34:10;94092.56;;;23.39;60.15
31337;BME280;22846;42.654;23.314;2023-04-20T03:36:36;94092.56;;;23.39;60.46
31337;BME280;22846;42.654;23.314;2023-04-20T03:39:01;94092.56;;;23.39;60.31
31337;BME280;22846;42.654;23.314;2023-04-20T03:41:29;94097.25;;;23.38;60.58
31337;BME280;22846;42.654;23.314;2023-04-20T03:43:55;94093.75;;;23.38;60.25
31337;BME280;22846;42.654;23.314;2023-04-20T03:46:20;94084.50;;;23.35;60.51
31337;BME280;22846;42.654;23.314;2023-04-20T03:48:46;94083.56;;;23.29;60.22
31337;BME280;22846;42.654;23.314;2023-04-20T03:51:11;94095.00;;;23.37;60.16
31337;BME280;22846;42.654;23.314;2023-04-20T03:53:36;94096.94;;;23.36;60.20
31337;BME280;22846;42.654;23.314;2023-04-20T03:56:02;94090.41;;;23.34;60.27
31337;BME280;22846;42.654;23.314;2023-04-20T03:58:27;94092.69;;;23.35;60.51
31337;BME280;22846;42.654;23.314;2023-04-20T04:01:00;94088.44;;;23.34;60.12
31337;BME280;22846;42.654;23.314;2023-04-20T04:03:25;94082.03;;;23.28;60.53
31337;BME280;22846;42.654;23.314;2023-04-20T04:05:50;94093.75;;;23.38;60.54
31337;BME280;22846;42.654;23.314;2023-04-20T04:08:16;94092.56;;;23.39;60.67
31337;BME280;22846;42.654;23.314;2023-04-20T04:10:41;94095.63;;;23.41;61.53
31337;BME280;22846;42.654;23.314;2023-04-20T04:13:07;94075.84;;;23.28;61.91
31337;BME280;22846;42.654;23.314;2023-04-20T04:15:32;94103.66;;;23.44;61.98
31337;BME280;22846;42.654;23.314;2023-04-20T04:17:57;94106.41;;;23.44;61.82
31337;BME280;22846;42.654;23.314;2023-04-20T04:20:23;94104.75;;;23.47;61.50
31337;BME280;22846;42.654;23.314;2023-04-20T04:22:48;94105.53;;;23.47;61.62
31337;BME280;22846;42.654;23.314;2023-04-20T04:25:14;94109.78;;;23.48;61.17
31337;BME280;22846;42.654;23.314;2023-04-20T04:27:39;94102.34;;;23.49;61.36
31337;BME280;22846;42.654;23.314;2023-04-20T04:30:05;94105.06;;;23.49;60.90
31337;BME280;22846;42.654;23.314;2023-04-20T04:32:31;94098.66;;;23.43;61.02
31337;BME280;22846;42.654;23.314;2023-04-20T04:34:58;94107.03;;;23.48;60.90
31337;BME280;22846;42.654;23.314;2023-04-20T04:37:25;94104.56;;;23.41;60.56
31337;BME280;22846;42.654;23.314;2023-04-20T04:39:51;94110.19;;;23.47;60.35
31337;BME280;22846;42.654;23.314;2023-04-20T04:42:16;94108.69;;;23.46;60.29
31337;BME280;22846;42.654;23.314;2023-04-20T04:44:42;94121.09;;;23.47;60.25
31337;BME280;22846;42.654;23.314;2023-04-20T04:47:07;94118.38;;;23.47;59.62
31337;BME280;22846;42.654;23.314;2023-04-20T04:49:33;94124.16;;;23.49;60.76
31337;BME280;22846;42.654;23.314;2023-04-20T04:52:00;94124.16;;;23.49;60.38
31337;BME280;22846;42.654;23.314;2023-04-20T04:54:25;94126.88;;;23.49;60.45
31337;BME280;22846;42.654;23.314;2023-04-20T04:56:51;94131.13;;;23.50;60.16
31337;BME280;22846;42.654;23.314;2023-04-20T04:59:16;94130.81;;;23.48;60.37
31337;BME280;22846;42.654;23.314;2023-04-20T05:01:41;94135.84;;;23.49;60.43
31337;BME280;22846;42.654;23.314;2023-04-20T05:04:07;94140.19;;;23.47;60.25
31337;BME280;22846;42.654;23.314;2023-04-20T05:06:32;94129.28;;;23.47;60.06
31337;BME280;22846;42.654;23.314;2023-04-20T05:08:58;94128.22;;;23.44;59.92
31337;BME280;22846;42.654;23.314;2023-04-20T05:11:23;94140.66;;;23.45;60.19
31337;BME280;22846;42.654;23.314;2023-04-20T05:13:48;94131.84;;;23.41;59.89
31337;BME280;22846;42.654;23.314;2023-04-20T05:16:14;94139.13;;;23.44;60.15
31337;BME280;22846;42.654;23.314;2023-04-20T05:18:40;94132.13;;;23.43;59.67
31337;BME280;22846;42.654;23.314;2023-04-20T05:21:05;94130.63;;;23.42;59.76
31337;BME280;22846;42.654;23.314;2023-04-20T05:23:31;94137.59;;;23.43;59.67
31337;BME280;22846;42.654;23.314;2023-04-20T05:25:56;94134.88;;;23.43;59.95
31337;BME280;22846;42.654;23.314;2023-04-20T05:28:21;94139.25;;;23.41;58.76
31337;BME280;22846;42.654;23.314;2023-04-20T05:30:47;94142.41;;;23.39;59.00
31337;BME280;22846;42.654;23.314;2023-04-20T05:33:12;94151.34;;;23.40;58.34
31337;BME280;22846;42.654;23.314;2023-04-20T05:35:38;94145.56;;;23.38;56.99
31337;BME280;22846;42.654;23.314;2023-04-20T05:38:05;94140.91;;;23.38;57.04
31337;BME280;22846;42.654;23.314;2023-04-20T05:40:31;94146.03;;;23.36;57.83
31337;BME280;22846;42.654;23.314;2023-04-20T05:42:59;94149.53;;;23.37;56.28
31337;BME280;22846;42.654;23.314;2023-04-20T05:45:25;94148.00;;;23.36;54.71
31337;BME280;22846;42.654;23.314;2023-04-20T05:47:54;94141.16;;;23.31;54.65
31337;BME280;22846;42.654;23.314;2023-04-20T05:50:24;94143.88;;;23.31;51.08
31337;BME280;22846;42.654;23.314;2023-04-20T05:52:50;94144.28;;;23.30;54.40
31337;BME280;22846;42.654;23.314;2023-04-20T05:55:16;94151.28;;;23.31;56.03
31337;BME280;22846;42.654;23.314;2023-04-20T05:57:42;94148.59;;;23.18;45.10
31337;BME280;22846;42.654;23.314;2023-04-20T06:00:12;94152.88;;;22.95;40.16
31337;BME280;22846;42.654;23.314;2023-04-20T06:02:38;94144.28;;;22.71;40.63
31337;BME280;22846;42.654;23.314;2023-04-20T06:05:05;94151.94;;;22.64;46.79
31337;BME280;22846;42.654;23.314;2023-04-20T06:07:30;94143.84;;;22.60;50.01
31337;BME280;22846;42.654;23.314;2023-04-20T06:09:56;94143.56;;;22.58;51.58
31337;BME280;22846;42.654;23.314;2023-04-20T06:12:21;94145.72;;;22.63;52.62
31337;BME280;22846;42.654;23.314;2023-04-20T06:14:47;94147.13;;;22.68;53.58
31337;BME280;22846;42.654;23.314;2023-04-20T06:17:12;94147.78;;;22.72;53.80
31337;BME280;22846;42.654;23.314;2023-04-20T06:19:38;94152.69;;;22.77;54.05
31337;BME280;22846;42.654;23.314;2023-04-20T06:22:06;94149.94;;;22.77;54.29
31337;BME280;22846;42.654;23.314;2023-04-20T06:24:33;94150.50;;;22.84;54.52
31337;BME280;22846;42.654;23.314;2023-04-20T06:26:59;94153.22;;;22.84;54.55
31337;BME280;22846;42.654;23.314;2023-04-20T06:29:24;94158.00;;;22.93;55.17
31337;BME280;22846;42.654;23.314;2023-04-20T06:31:50;94157.88;;;22.96;55.16
31337;BME280;22846;42.654;23.314;2023-04-20T06:34:15;94156.25;;;22.99;54.99
31337;BME280;22846;42.654;23.314;2023-04-20T06:36:41;94157.34;;;23.01;55.38
31337;BME280;22846;42.654;23.314;2023-04-20T06:39:07;94157.66;;;23.03;55.29
31337;BME280;22846;42.654;23.314;2023-04-20T06:41:33;94157.56;;;23.07;55.23
31337;BME280;22846;42.654;23.314;2023-04-20T06:43:58;94160.59;;;23.08;55.41
31337;BME280;22846;42.654;23.314;2023-04-20T06:46:24;94160.59;;;23.08;55.24
31337;BME280;22846;42.654;23.314;2023-04-20T06:48:49;94168.66;;;23.12;56.01
31337;BME280;22846;42.654;23.314;2023-04-20T06:51:15;94166.72;;;23.12;55.99
31337;BME280;22846;42.654;23.314;2023-04-20T06:53:40;94174.44;;;23.14;55.91
31337;BME280;22846;42.654;23.314;2023-04-20T06:56:06;94170.50;;;23.15;56.17
31337;BME280;22846;42.654;23.314;2023-04-20T06:58:31;94173.22;;;23.15;56.21
31337;BME280;22846;42.654;23.314;2023-04-20T07:00:57;94176.28;;;23.17;56.16
31337;BME280;22846;42.654;23.314;2023-04-20T07:03:22;94179.00;;;23.17;56.15
31337;BME280;22846;42.654;23.314;2023-04-20T07:05:48;94172.78;;;23.16;55.27
31337;BME280;22846;42.654;23.314;2023-04-20T07:08:13;94182.06;;;23.19;55.63
31337;BME280;22846;42.654;23.314;2023-04-20T07:10:39;94184.34;;;23.20;55.80
31337;BME280;22846;42.654;23.314;2023-04-20T07:13:05;94185.53;;;23.19;55.81
31337;BME280;22846;42.654;23.314;2023-04-20T07:15:30;94184.22;;;23.24;55.86
31337;BME280;22846;42.654;23.314;2023-04-20T07:17:56;94185.31;;;23.26;55.99
31337;BME280;22846;42.654;23.314;2023-04-20T07:20:21;94178.66;;;23.27;56.15
31337;BME280;22846;42.654;23.314;2023-04-20T07:22:47;94176.72;;;23.28;55.95
31337;BME280;22846;42.654;23.314;2023-04-20T07:25:12;94171.16;;;23.19;55.88
31337;BME280;22846;42.654;23.314;2023-04-20T07:27:39;94180.97;;;23.29;56.15
31337;BME280;22846;42.654;23.314;2023-04-20T07:30:06;94186.28;;;23.32;56.14
31337;BME280;22846;42.654;23.314;2023-04-20T07:32:33;94184.31;;;23.33;56.47
31337;BME280;22846;42.654;23.314;2023-04-20T07:34:59;94182.03;;;23.31;56.62
31337;BME280;22846;42.654;23.314;2023-04-20T07:37:25;94181.59;;;23.33;56.31
31337;BME280;22846;42.654;23.314;2023-04-20T07:39:51;94167.13;;;23.23;56.52
31337;BME280;22846;42.654;23.314;2023-04-20T07:42:17;94181.59;;;23.33;56.58
31337;BME280;22846;42.654;23.314;2023-04-20T07:44:43;94181.59;;;23.33;56.58
31337;BME280;22846;42.654;23.314;2023-04-20T07:47:08;94171.25;;;23.28;56.56
31337;BME280;22846;42.654;23.314;2023-04-20T07:49:36;94176.88;;;23.33;57.16
31337;BME280;22846;42.654;23.314;2023-04-20T07:52:03;94177.66;;;23.34;56.91
31337;BME280;22846;42.654;23.314;2023-04-20T07:54:28;94174.16;;;23.33;57.06
31337;BME280;22846;42.654;23.314;2023-04-20T07:56:54;94176.00;;;23.36;57.54
31337;BME280;22846;42.654;23.314;2023-04-20T07:59:19;94176.47;;;23.35;57.09
31337;BME280;22846;42.654;23.314;2023-04-20T08:01:45;94151.63;;;23.20;56.04
31337;BME280;22846;42.654;23.314;2023-04-20T08:04:10;94181.00;;;23.38;55.65
31337;BME280;22846;42.654;23.314;2023-04-20T08:06:36;94179.06;;;23.38;55.89
31337;BME280;22846;42.654;23.314;2023-04-20T08:09:01;94172.75;;;23.41;55.85
31337;BME280;22846;42.654;23.314;2023-04-20T08:11:28;94181.22;;;23.43;55.85
31337;BME280;22846;42.654;23.314;2023-04-20T08:13:53;94187.00;;;23.45;55.56
31337;BME280;22846;42.654;23.314;2023-04-20T08:16:19;94171.97;;;23.41;55.69
31337;BME280;22846;42.654;23.314;2023-04-20T08:18:44;94177.81;;;23.52;55.62
31337;BME280;22846;42.654;23.314;2023-04-20T08:21:10;94176.94;;;23.55;55.71
31337;BME280;22846;42.654;23.314;2023-04-20T08:23:35;94179.97;;;23.57;55.74
31337;BME280;22846;42.654;23.314;2023-04-20T08:26:02;94179.09;;;23.60;55.74
31337;BME280;22846;42.654;23.314;2023-04-20T08:28:27;94166.91;;;23.52;55.87
31337;BME280;22846;42.654;23.314;2023-04-20T08:30:53;94177.91;;;23.61;55.71
31337;BME280;22846;42.654;23.314;2023-04-20T08:33:18;94184.56;;;23.60;55.61
31337;BME280;22846;42.654;23.314;2023-04-20T08:35:44;94176.81;;;23.58;55.97
31337;BME280;22846;42.654;23.314;2023-04-20T08:38:09;94180.97;;;23.63;55.61
31337;BME280;22846;42.654;23.314;2023-04-20T08:40:35;94182.16;;;23.62;55.95
31337;BME280;22846;42.654;23.314;2023-04-20T08:43:01;94185.63;;;23.62;55.48
31337;BME280;22846;42.654;23.314;2023-04-20T08:45:27;94176.50;;;23.56;56.03
31337;BME280;22846;42.654;23.314;2023-04-20T08:47:53;94180.09;;;23.53;55.95
31337;BME280;22846;42.654;23.314;2023-04-20T08:50:20;94185.63;;;23.62;55.72
31337;BME280;22846;42.654;23.314;2023-04-20T08:52:46;94190.34;;;23.62;55.63
31337;BME280;22846;42.654;23.314;2023-04-20T08:55:16;94190.34;;;23.62;55.75
31337;BME280;22846;42.654;23.314;2023-04-20T08:57:42;94182.91;;;23.62;56.01
31337;BME280;22846;42.654;23.314;2023-04-20T09:00:08;94194.59;;;23.63;55.88
31337;BME280;22846;42.654;23.314;2023-04-20T09:02:48;94194.59;;;23.63;56.26
31337;BME280;22846;42.654;23.314;2023-04-20T09:05:14;94196.53;;;23.62;56.08
31337;BME280;22846;42.654;23.314;2023-04-20T09:07:50;94191.53;;;23.61;55.93
31337;BME280;22846;42.654;23.314;2023-04-20T09:10:16;94193.81;;;23.62;56.15
31337;BME280;22846;42.654;23.314;2023-04-20T09:12:41;94204.72;;;23.62;56.29
31337;BME280;22846;42.654;23.314;2023-04-20T09:15:07;94195.59;;;23.56;56.65
31337;BME280;22846;42.654;23.314;2023-04-20T09:17:36;94200.16;;;23.59;56.55
31337;BME280;22846;42.654;23.314;2023-04-20T09:20:04;94194.28;;;23.61;56.57
31337;BME280;22846;42.654;23.314;2023-04-20T09:22:32;94194.28;;;23.61;56.85
31337;BME280;22846;42.654;23.314;2023-04-20T09:24:58;94186.09;;;23.61;56.68
31337;BME280;22846;42.654;23.314;2023-04-20T09:27:24;94190.00;;;23.60;56.88
31337;BME280;22846;42.654;23.314;2023-04-20T09:29:58;94182.28;;;23.58;56.80
31337;BME280;22846;42.654;23.314;2023-04-20T09:32:26;94176.94;;;23.55;56.90
31337;BME280;22846;42.654;23.314;2023-04-20T09:34:52;94153.94;;;23.43;56.92
31337;BME280;22846;42.654;23.314;2023-04-20T09:37:19;94180.31;;;23.59;56.47
31337;BME280;22846;42.654;23.314;2023-04-20T09:39:45;94179.84;;;23.60;56.90
31337;BME280;22846;42.654;23.314;2023-04-20T09:42:11;94185.31;;;23.60;56.36
31337;BME280;22846;42.654;23.314;2023-04-20T09:44:38;94165.00;;;23.61;56.75
31337;BME280;22846;42.654;23.314;2023-04-20T09:47:04;94182.16;;;23.62;55.95
31337;BME280;22846;42.654;23.314;2023-04-20T09:49:30;94165.13;;;23.58;56.19
31337;BME280;22846;42.654;23.314;2023-04-20T09:51:57;94175.03;;;23.64;56.34
31337;BME280;22846;42.654;23.314;2023-04-20T09:54:25;94172.66;;;23.66;55.89
31337;BME280;22846;42.654;23.314;2023-04-20T09:56:52;94166.00;;;23.67;56.34
31337;BME280;22846;42.654;23.314;2023-04-20T09:59:18;94162.03;;;23.68;56.09
31337;BME280;22846;42.654;23.314;2023-04-20T10:01:45;94137.53;;;23.56;55.98
31337;BME280;22846;42.654;23.314;2023-04-20T10:04:11;94147.13;;;23.60;55.84
31337;BME280;22846;42.654;23.314;2023-04-20T10:06:39;94144.25;;;23.64;56.07
31337;BME280;22846;42.654;23.314;2023-04-20T10:09:06;94147.06;;;23.73;55.91
31337;BME280;22846;42.654;23.314;2023-04-20T10:11:34;94139.47;;;23.68;55.76
31337;BME280;22846;42.654;23.314;2023-04-20T10:14:33;94156.38;;;23.75;56.39
31337;BME280;22846;42.654;23.314;2023-04-20T10:17:03;94151.66;;;23.76;56.17
31337;BME280;22846;42.654;23.314;2023-04-20T10:19:42;94153.19;;;23.77;56.60
31337;BME280;22846;42.654;23.314;2023-04-20T10:22:09;94145.00;;;23.77;56.17
31337;BME280;22846;42.654;23.314;2023-04-20T10:24:36;94143.03;;;23.77;56.34
31337;BME280;22846;42.654;23.314;2023-04-20T10:27:25;94148.06;;;23.79;56.60
31337;BME280;22846;42.654;23.314;2023-04-20T10:29:50;94143.34;;;23.79;56.47
31337;BME280;22846;42.654;23.314;2023-04-20T10:32:28;94143.34;;;23.79;56.10
31337;BME280;22846;42.654;23.314;2023-04-20T10:35:05;94146.84;;;23.80;56.08
31337;BME280;22846;42.654;23.314;2023-04-20T10:37:32;94140.94;;;23.81;56.06
31337;BME280;22846;42.654;23.314;2023-04-20T10:39:58;94141.53;;;23.76;55.36
31337;BME280;22846;42.654;23.314;2023-04-20T10:42:24;94134.75;;;23.81;55.40
31337;BME280;22846;42.654;23.314;2023-04-20T10:44:52;94138.97;;;23.82;56.38
31337;BME280;22846;42.654;23.314;2023-04-20T10:47:27;94134.84;;;23.77;55.57
31337;BME280;22846;42.654;23.314;2023-04-20T10:49:52;94134.31;;;23.48;43.80
31337;BME280;22846;42.654;23.314;2023-04-20T10:52:31;94123.56;;;23.11;41.09
31337;BME280;22846;42.654;23.314;2023-04-20T10:54:56;94141.22;;;22.82;42.29
31337;BME280;22846;42.654;23.314;2023-04-20T10:57:22;94131.44;;;22.72;47.27
31337;BME280;22846;42.654;23.314;2023-04-20T10:59:47;94107.03;;;22.56;51.26
31337;BME280;22846;42.654;23.314;2023-04-20T11:02:12;94132.84;;;22.76;46.12
31337;BME280;22846;42.654;23.314;2023-04-20T11:04:38;94116.50;;;22.76;42.10
31337;BME280;22846;42.654;23.314;2023-04-20T11:07:09;94119.13;;;22.67;48.73
31337;BME280;22846;42.654;23.314;2023-04-20T11:09:37;94122.06;;;22.85;50.30
31337;BME280;22846;42.654;23.314;2023-04-20T11:12:04;94119.41;;;22.94;51.37
31337;BME280;22846;42.654;23.314;2023-04-20T11:14:35;94111.25;;;22.94;51.54
31337;BME280;22846;42.654;23.314;2023-04-20T11:17:05;94122.31;;;23.12;51.22
31337;BME280;22846;42.654;23.314;2023-04-20T11:19:34;94121.44;;;23.15;51.69
31337;BME280;22846;42.654;23.314;2023-04-20T11:22:02;94120.34;;;23.25;51.31
31337;BME280;22846;42.654;23.314;2023-04-20T11:24:29;94120.84;;;23.32;51.56
31337;BME280;22846;42.654;23.314;2023-04-20T11:26:55;94093.81;;;23.25;51.24
31337;BME280;22846;42.654;23.314;2023-04-20T11:31:51;94097.72;;;23.37;51.98
31337;BME280;22846;42.654;23.314;2023-04-20T11:34:16;94117.03;;;23.51;51.94
31337;BME280;22846;42.654;23.314;2023-04-20T11:36:42;94106.78;;;23.55;51.94
31337;BME280;22846;42.654;23.314;2023-04-20T11:39:08;94104.81;;;23.56;52.13
31337;BME280;22846;42.654;23.314;2023-04-20T11:41:39;94110.91;;;23.60;52.25
31337;BME280;22846;42.654;23.314;2023-04-20T11:44:06;94106.53;;;23.62;52.83
31337;BME280;22846;42.654;23.314;2023-04-20T11:46:34;94099.41;;;23.65;52.94
31337;BME280;22846;42.654;23.314;2023-04-20T11:49:01;94101.72;;;23.66;52.92
31337;BME280;22846;42.654;23.314;2023-04-20T11:51:26;94099.28;;;23.68;53.38
31337;BME280;22846;42.654;23.314;2023-04-20T11:53:53;94102.78;;;23.69;53.96
31337;BME280;22846;42.654;23.314;2023-04-20T11:56:18;94098.09;;;23.69;53.86
31337;BME280;22846;42.654;23.314;2023-04-20T11:58:43;94094.94;;;23.71;53.92
31337;BME280;22846;42.654;23.314;2023-04-20T12:01:09;94096.47;;;23.72;54.40
31337;BME280;22846;42.654;23.314;2023-04-20T12:03:34;94091.00;;;23.72;54.00
31337;BME280;22846;42.654;23.314;2023-04-20T12:06:01;94089.78;;;23.73;54.42
31337;BME280;22846;42.654;23.314;2023-04-20T12:08:26;94103.41;;;23.73;53.98
31337;BME280;22846;42.654;23.314;2023-04-20T12:10:52;94100.69;;;23.73;54.27
31337;BME280;22846;42.654;23.314;2023-04-20T12:13:17;94102.22;;;23.74;53.95
31337;BME280;22846;42.654;23.314;2023-04-20T12:15:42;94101.47;;;23.73;53.63
31337;BME280;22846;42.654;23.314;2023-04-20T12:18:08;94106.13;;;23.73;53.58
31337;BME280;22846;42.654;23.314;2023-04-20T12:20:33;94102.22;;;23.74;53.25
31337;BME280;22846;42.654;23.314;2023-04-20T12:22:59;94107.66;;;23.74;52.99
31337;BME280;22846;42.654;23.314;2023-04-20T12:25:26;94112.38;;;23.73;52.72
31337;BME280;22846;42.654;23.314;2023-04-20T12:27:51;94112.38;;;23.73;52.70
31337;BME280;22846;42.654;23.314;2023-04-20T12:30:16;94110.09;;;23.72;53.32
31337;BME280;22846;42.654;23.314;2023-04-20T12:32:42;94104.94;;;23.74;53.04
31337;BME280;22846;42.654;23.314;2023-04-20T12:35:07;94101.91;;;23.72;53.35
31337;BME280;22846;42.654;23.314;2023-04-20T12:37:33;94104.63;;;23.72;52.99
31337;BME280;22846;42.654;23.314;2023-04-20T12:39:59;94099.19;;;23.72;53.36
31337;BME280;22846;42.654;23.314;2023-04-20T12:42:24;94102.66;;;23.72;53.55
31337;BME280;22846;42.654;23.314;2023-04-20T12:44:51;94097.34;;;23.69;53.48
31337;BME280;22846;42.654;23.314;2023-04-20T12:47:18;94088.69;;;23.70;53.13